sensor_id;sensor_type;location;lat;lon;timestamp;temperature;humidity
22153;DHT22;11242;50.536;12.688;2022-10-31T00:00:56;10.60;99.90
22153;DHT22;11242;50.536;12.688;2022-10-31T00:03:22;10.60;99.90
22153;DHT22;11242;50.536;12.688;2022-10-31T00:05:49;10.60;99.90
22153;DHT22;11242;50.536;12.688;2022-10-31T00:08:15;10.60;99.90
22153;DHT22;11242;50.536;12.688;2022-10-31T00:10:42;10.40;99.90
22153;DHT22;11242;50.536;12.688;2022-10-31T00:13:09;10.00;99.90
22153;DHT22;11242;50.536;12.688;2022-10-31T00:15:36;9.70;99.90
22153;DHT22;11242;50.536;12.688;2022-10-31T00:18:03;9.40;99.90
22153;DHT22;11242;50.536;12.688;2022-10-31T00:20:29;9.20;99.90
22153;DHT22;11242;50.536;12.688;2022-10-31T00:23:02;9.00;99.90
22153;DHT22;11242;50.536;12.688;2022-10-31T00:25:32;8.90;99.90
22153;DHT22;11242;50.536;12.688;2022-10-31T00:27:58;8.80;99.90
22153;DHT22;11242;50.536;12.688;2022-10-31T00:30:23;8.70;99.90
22153;DHT22;11242;50.536;12.688;2022-10-31T18:59:38;10.60;99.90
22153;DHT22;11242;50.536;12.688;2022-10-31T19:02:04;10.50;99.90
22153;DHT22;11242;50.536;12.688;2022-10-31T19:04:30;10.60;99.90
22153;DHT22;11242;50.536;12.688;2022-10-31T19:06:59;10.50;99.90
22153;DHT22;11242;50.536;12.688;2022-10-31T19:09:53;10.60;99.90
22153;DHT22;11242;50.536;12.688;2022-10-31T19:12:18;10.60;99.90
22153;DHT22;11242;50.536;12.688;2022-10-31T19:14:48;10.60;99.90
22153;DHT22;11242;50.536;12.688;2022-10-31T19:17:13;10.60;99.90
22153;DHT22;11242;50.536;12.688;2022-10-31T19:19:39;10.50;99.90
22153;DHT22;11242;50.536;12.688;2022-10-31T19:22:05;10.50;99.90
22153;DHT22;11242;50.536;12.688;2022-10-31T19:24:30;10.50;99.90
22153;DHT22;11242;50.536;12.688;2022-10-31T19:26:56;10.50;99.90
22153;DHT22;11242;50.536;12.688;2022-10-31T19:29:25;10.50;99.90
22153;DHT22;11242;50.536;12.688;2022-10-31T19:31:51;10.40;99.90
22153;DHT22;11242;50.536;12.688;2022-10-31T19:34:16;10.40;99.90
22153;DHT22;11242;50.536;12.688;2022-10-31T19:36:42;10.30;99.90
22153;DHT22;11242;50.536;12.688;2022-10-31T19:39:08;10.30;99.90
22153;DHT22;11242;50.536;12.688;2022-10-31T19:41:34;10.10;99.90
22153;DHT22;11242;50.536;12.688;2022-10-31T19:44:00;10.00;99.90
22153;DHT22;11242;50.536;12.688;2022-10-31T19:46:26;9.90;99.90
22153;DHT22;11242;50.536;12.688;2022-10-31T19:48:51;9.90;99.90
22153;DHT22;11242;50.536;12.688;2022-10-31T19:51:19;9.90;99.90
22153;DHT22;11242;50.536;12.688;2022-10-31T19:53:45;9.80;99.90
22153;DHT22;11242;50.536;12.688;2022-10-31T19:56:17;9.70;99.90
22153;DHT22;11242;50.536;12.688;2022-10-31T19:58:44;9.60;99.90
22153;DHT22;11242;50.536;12.688;2022-10-31T20:01:17;9.60;99.90
22153;DHT22;11242;50.536;12.688;2022-10-31T20:03:44;9.60;99.90
22153;DHT22;11242;50.536;12.688;2022-10-31T20:06:22;9.50;99.90
22153;DHT22;11242;50.536;12.688;2022-10-31T20:08:48;9.50;99.90
22153;DHT22;11242;50.536;12.688;2022-10-31T20:11:13;9.50;99.90
22153;DHT22;11242;50.536;12.688;2022-10-31T20:13:39;9.40;99.90
22153;DHT22;11242;50.536;12.688;2022-10-31T20:16:09;9.40;99.90
22153;DHT22;11242;50.536;12.688;2022-10-31T20:18:36;9.30;99.90
22153;DHT22;11242;50.536;12.688;2022-10-31T20:21:04;9.30;99.90
22153;DHT22;11242;50.536;12.688;2022-10-31T20:23:31;9.20;99.90
22153;DHT22;11242;50.536;12.688;2022-10-31T20:25:57;9.20;99.90
22153;DHT22;11242;50.536;12.688;2022-10-31T20:28:23;9.20;99.90
22153;DHT22;11242;50.536;12.688;2022-10-31T20:30:49;9.20;99.90
22153;DHT22;11242;50.536;12.688;2022-10-31T20:33:14;9.10;99.90
22153;DHT22;11242;50.536;12.688;2022-10-31T20:35:40;9.10;99.90
22153;DHT22;11242;50.536;12.688;2022-10-31T20:38:07;8.90;99.90
22153;DHT22;11242;50.536;12.688;2022-10-31T20:40:33;8.90;99.90
22153;DHT22;11242;50.536;12.688;2022-10-31T20:43:01;8.80;99.90
22153;DHT22;11242;50.536;12.688;2022-10-31T20:45:28;8.70;99.90
22153;DHT22;11242;50.536;12.688;2022-10-31T20:47:54;8.70;99.90
22153;DHT22;11242;50.536;12.688;2022-10-31T20:50:20;8.70;99.90
22153;DHT22;11242;50.536;12.688;2022-10-31T20:52:46;8.70;99.90
22153;DHT22;11242;50.536;12.688;2022-10-31T20:55:11;8.70;99.90
22153;DHT22;11242;50.536;12.688;2022-10-31T20:57:37;8.60;99.90
22153;DHT22;11242;50.536;12.688;2022-10-31T21:00:04;8.70;99.90
22153;DHT22;11242;50.536;12.688;2022-10-31T21:02:29;8.70;99.90
22153;DHT22;11242;50.536;12.688;2022-10-31T21:04:55;8.70;99.90
22153;DHT22;11242;50.536;12.688;2022-10-31T21:07:21;8.70;99.90
22153;DHT22;11242;50.536;12.688;2022-10-31T21:09:46;8.70;99.90
22153;DHT22;11242;50.536;12.688;2022-10-31T21:12:12;8.60;99.90
22153;DHT22;11242;50.536;12.688;2022-10-31T21:14:37;8.70;99.90
22153;DHT22;11242;50.536;12.688;2022-10-31T21:17:04;8.70;99.90
22153;DHT22;11242;50.536;12.688;2022-10-31T21:19:29;8.70;99.90
22153;DHT22;11242;50.536;12.688;2022-10-31T21:21:55;8.70;99.90
22153;DHT22;11242;50.536;12.688;2022-10-31T21:24:21;8.70;99.90
22153;DHT22;11242;50.536;12.688;2022-10-31T21:26:49;8.70;99.90
22153;DHT22;11242;50.536;12.688;2022-10-31T21:29:16;8.70;99.90
22153;DHT22;11242;50.536;12.688;2022-10-31T21:31:42;8.60;99.90
22153;DHT22;11242;50.536;12.688;2022-10-31T21:34:09;8.60;99.90
22153;DHT22;11242;50.536;12.688;2022-10-31T21:36:35;8.60;99.90
22153;DHT22;11242;50.536;12.688;2022-10-31T21:39:01;8.50;99.90
22153;DHT22;11242;50.536;12.688;2022-10-31T21:41:27;8.40;99.90
22153;DHT22;11242;50.536;12.688;2022-10-31T21:43:53;8.50;99.90
22153;DHT22;11242;50.536;12.688;2022-10-31T21:46:22;8.40;99.90
22153;DHT22;11242;50.536;12.688;2022-10-31T21:48:49;8.30;99.90
22153;DHT22;11242;50.536;12.688;2022-10-31T21:51:18;8.20;99.90
22153;DHT22;11242;50.536;12.688;2022-10-31T21:53:44;8.20;99.90
22153;DHT22;11242;50.536;12.688;2022-10-31T21:56:29;8.20;99.90
22153;DHT22;11242;50.536;12.688;2022-10-31T21:58:56;8.10;99.90
22153;DHT22;11242;50.536;12.688;2022-10-31T22:01:23;8.00;99.90
22153;DHT22;11242;50.536;12.688;2022-10-31T22:03:49;7.90;99.90
22153;DHT22;11242;50.536;12.688;2022-10-31T22:06:15;7.90;99.90
22153;DHT22;11242;50.536;12.688;2022-10-31T22:08:41;7.80;99.90
22153;DHT22;11242;50.536;12.688;2022-10-31T22:11:09;7.80;99.90
22153;DHT22;11242;50.536;12.688;2022-10-31T22:13:35;7.90;99.90
22153;DHT22;11242;50.536;12.688;2022-10-31T22:18:27;7.90;99.90
22153;DHT22;11242;50.536;12.688;2022-10-31T22:20:59;7.80;99.90
22153;DHT22;11242;50.536;12.688;2022-10-31T22:23:24;7.70;99.90
22153;DHT22;11242;50.536;12.688;2022-10-31T22:25:50;7.70;99.90
22153;DHT22;11242;50.536;12.688;2022-10-31T22:28:16;7.70;99.90
22153;DHT22;11242;50.536;12.688;2022-10-31T22:30:41;7.60;99.90
22153;DHT22;11242;50.536;12.688;2022-10-31T22:33:07;7.60;99.90
22153;DHT22;11242;50.536;12.688;2022-10-31T22:35:33;7.70;99.90
22153;DHT22;11242;50.536;12.688;2022-10-31T22:38:00;7.90;99.90
22153;DHT22;11242;50.536;12.688;2022-10-31T22:40:26;7.90;99.90
22153;DHT22;11242;50.536;12.688;2022-10-31T22:42:51;8.00;99.90
22153;DHT22;11242;50.536;12.688;2022-10-31T22:45:17;8.00;99.90
22153;DHT22;11242;50.536;12.688;2022-10-31T22:47:42;8.00;99.90
22153;DHT22;11242;50.536;12.688;2022-10-31T22:50:08;8.10;99.90
22153;DHT22;11242;50.536;12.688;2022-10-31T22:52:34;8.10;99.90
22153;DHT22;11242;50.536;12.688;2022-10-31T22:54:59;8.10;99.90
22153;DHT22;11242;50.536;12.688;2022-10-31T22:57:25;8.00;99.90
22153;DHT22;11242;50.536;12.688;2022-10-31T22:59:50;7.90;99.90
22153;DHT22;11242;50.536;12.688;2022-10-31T23:02:16;7.90;99.90
22153;DHT22;11242;50.536;12.688;2022-10-31T23:04:41;7.80;99.90
22153;DHT22;11242;50.536;12.688;2022-10-31T23:07:07;7.80;99.90
22153;DHT22;11242;50.536;12.688;2022-10-31T23:09:33;7.70;99.90
22153;DHT22;11242;50.536;12.688;2022-10-31T23:12:00;7.80;99.90
22153;DHT22;11242;50.536;12.688;2022-10-31T23:14:46;7.90;99.90
22153;DHT22;11242;50.536;12.688;2022-10-31T23:17:11;8.20;99.90
22153;DHT22;11242;50.536;12.688;2022-10-31T23:19:43;8.40;99.90
22153;DHT22;11242;50.536;12.688;2022-10-31T23:22:10;8.40;99.90
22153;DHT22;11242;50.536;12.688;2022-10-31T23:24:44;8.40;99.90
22153;DHT22;11242;50.536;12.688;2022-10-31T23:27:21;8.40;99.90
22153;DHT22;11242;50.536;12.688;2022-10-31T23:29:53;8.50;99.90
22153;DHT22;11242;50.536;12.688;2022-10-31T23:34:49;9.00;99.90
22153;DHT22;11242;50.536;12.688;2022-10-31T23:37:15;9.00;99.90
22153;DHT22;11242;50.536;12.688;2022-10-31T23:39:42;8.90;99.90
22153;DHT22;11242;50.536;12.688;2022-10-31T23:42:08;8.80;99.90
22153;DHT22;11242;50.536;12.688;2022-10-31T23:44:33;8.70;99.90
22153;DHT22;11242;50.536;12.688;2022-10-31T23:46:59;8.70;99.90
22153;DHT22;11242;50.536;12.688;2022-10-31T23:49:25;8.70;99.90
22153;DHT22;11242;50.536;12.688;2022-10-31T23:51:50;8.60;99.90
22153;DHT22;11242;50.536;12.688;2022-10-31T23:54:16;8.60;99.90
22153;DHT22;11242;50.536;12.688;2022-10-31T23:56:42;8.60;99.90
22153;DHT22;11242;50.536;12.688;2022-10-31T23:59:08;8.50;99.90
